sensor_id;sensor_type;location;lat;lon;timestamp;P1;durP1;ratioP1;P2;durP2;ratioP2
61897;SDS011;47850;50.274;18.908;2022-09-09T00:02:02;8.80;;;5.60;;
61897;SDS011;47850;50.274;18.908;2022-09-09T00:04:41;8.20;;;6.10;;
61897;SDS011;47850;50.274;18.908;2022-09-09T00:10:00;10.00;;;7.70;;
61897;SDS011;47850;50.274;18.908;2022-09-09T00:12:51;10.90;;;8.30;;
61897;SDS011;47850;50.274;18.908;2022-09-09T00:15:36;9.50;;;7.00;;
61897;SDS011;47850;50.274;18.908;2022-09-09T00:18:14;12.90;;;8.50;;
61897;SDS011;47850;50.274;18.908;2022-09-09T00:20:52;12.20;;;9.00;;
61897;SDS011;47850;50.274;18.908;2022-09-09T00:25:56;11.80;;;9.10;;
61897;SDS011;47850;50.274;18.908;2022-09-09T00:28:47;13.40;;;9.50;;
61897;SDS011;47850;50.274;18.908;2022-09-09T00:31:16;10.50;;;8.00;;
61897;SDS011;47850;50.274;18.908;2022-09-09T00:33:55;12.10;;;8.80;;
61897;SDS011;47850;50.274;18.908;2022-09-09T00:36:28;14.70;;;10.00;;
61897;SDS011;47850;50.274;18.908;2022-09-09T00:39:02;13.60;;;9.80;;
61897;SDS011;47850;50.274;18.908;2022-09-09T00:46:50;15.60;;;10.70;;
61897;SDS011;47850;50.274;18.908;2022-09-09T00:49:36;16.30;;;11.70;;
61897;SDS011;47850;50.274;18.908;2022-09-09T00:52:24;17.50;;;11.80;;
61897;SDS011;47850;50.274;18.908;2022-09-09T00:57:44;16.50;;;10.00;;
61897;SDS011;47850;50.274;18.908;2022-09-09T01:00:35;13.30;;;10.00;;
61897;SDS011;47850;50.274;18.908;2022-09-09T01:11:25;17.50;;;11.70;;
61897;SDS011;47850;50.274;18.908;2022-09-09T01:14:12;18.90;;;12.90;;
61897;SDS011;47850;50.274;18.908;2022-09-09T01:16:53;17.90;;;12.90;;
61897;SDS011;47850;50.274;18.908;2022-09-09T01:19:24;16.40;;;11.10;;
61897;SDS011;47850;50.274;18.908;2022-09-09T01:22:01;17.90;;;13.20;;
61897;SDS011;47850;50.274;18.908;2022-09-09T01:24:39;16.40;;;11.60;;
61897;SDS011;47850;50.274;18.908;2022-09-09T01:27:14;18.10;;;12.30;;
61897;SDS011;47850;50.274;18.908;2022-09-09T01:29:41;16.80;;;11.20;;
61897;SDS011;47850;50.274;18.908;2022-09-09T01:35:12;17.70;;;12.60;;
61897;SDS011;47850;50.274;18.908;2022-09-09T01:37:46;17.30;;;12.70;;
61897;SDS011;47850;50.274;18.908;2022-09-09T01:40:11;16.00;;;12.50;;
61897;SDS011;47850;50.274;18.908;2022-09-09T01:42:37;16.20;;;13.10;;
61897;SDS011;47850;50.274;18.908;2022-09-09T01:45:03;15.50;;;12.10;;
61897;SDS011;47850;50.274;18.908;2022-09-09T01:47:30;15.90;;;11.90;;
61897;SDS011;47850;50.274;18.908;2022-09-09T01:49:55;17.10;;;12.60;;
61897;SDS011;47850;50.274;18.908;2022-09-09T01:52:21;18.60;;;13.20;;
61897;SDS011;47850;50.274;18.908;2022-09-09T01:54:48;17.50;;;12.60;;
61897;SDS011;47850;50.274;18.908;2022-09-09T02:00:05;18.70;;;11.90;;
61897;SDS011;47850;50.274;18.908;2022-09-09T02:08:03;15.30;;;11.50;;
61897;SDS011;47850;50.274;18.908;2022-09-09T02:10:43;20.20;;;12.70;;
61897;SDS011;47850;50.274;18.908;2022-09-09T02:13:14;12.20;;;8.60;;
61897;SDS011;47850;50.274;18.908;2022-09-09T02:15:48;17.70;;;12.80;;
61897;SDS011;47850;50.274;18.908;2022-09-09T02:18:23;23.00;;;13.10;;
61897;SDS011;47850;50.274;18.908;2022-09-09T02:20:53;17.00;;;13.60;;
61897;SDS011;47850;50.274;18.908;2022-09-09T02:23:19;18.00;;;13.50;;
61897;SDS011;47850;50.274;18.908;2022-09-09T02:25:46;17.10;;;13.50;;
61897;SDS011;47850;50.274;18.908;2022-09-09T02:28:14;12.90;;;10.10;;
61897;SDS011;47850;50.274;18.908;2022-09-09T02:30:42;16.10;;;10.60;;
61897;SDS011;47850;50.274;18.908;2022-09-09T02:33:12;16.00;;;11.70;;
61897;SDS011;47850;50.274;18.908;2022-09-09T02:35:40;17.50;;;11.70;;
61897;SDS011;47850;50.274;18.908;2022-09-09T02:38:10;23.10;;;12.90;;
61897;SDS011;47850;50.274;18.908;2022-09-09T02:40:39;14.80;;;11.60;;
61897;SDS011;47850;50.274;18.908;2022-09-09T02:43:04;15.90;;;12.10;;
61897;SDS011;47850;50.274;18.908;2022-09-09T02:45:34;16.60;;;11.80;;
61897;SDS011;47850;50.274;18.908;2022-09-09T02:53:57;17.00;;;12.50;;
61897;SDS011;47850;50.274;18.908;2022-09-09T02:56:36;16.30;;;12.20;;
61897;SDS011;47850;50.274;18.908;2022-09-09T02:59:07;15.80;;;12.20;;
61897;SDS011;47850;50.274;18.908;2022-09-09T03:01:33;15.70;;;11.50;;
61897;SDS011;47850;50.274;18.908;2022-09-09T03:04:01;17.20;;;11.20;;
61897;SDS011;47850;50.274;18.908;2022-09-09T03:06:30;18.40;;;12.00;;
61897;SDS011;47850;50.274;18.908;2022-09-09T03:08:56;15.40;;;12.10;;
61897;SDS011;47850;50.274;18.908;2022-09-09T03:11:26;13.20;;;11.20;;
61897;SDS011;47850;50.274;18.908;2022-09-09T03:13:53;15.90;;;11.80;;
61897;SDS011;47850;50.274;18.908;2022-09-09T03:16:24;12.40;;;8.80;;
61897;SDS011;47850;50.274;18.908;2022-09-09T03:18:50;16.30;;;11.40;;
61897;SDS011;47850;50.274;18.908;2022-09-09T03:21:16;18.20;;;13.20;;
61897;SDS011;47850;50.274;18.908;2022-09-09T03:23:42;20.20;;;12.30;;
61897;SDS011;47850;50.274;18.908;2022-09-09T03:26:08;17.80;;;12.90;;
61897;SDS011;47850;50.274;18.908;2022-09-09T03:28:34;19.80;;;14.50;;
61897;SDS011;47850;50.274;18.908;2022-09-09T03:31:01;20.20;;;12.40;;
61897;SDS011;47850;50.274;18.908;2022-09-09T03:33:31;14.80;;;12.10;;
61897;SDS011;47850;50.274;18.908;2022-09-09T03:35:57;14.90;;;10.80;;
61897;SDS011;47850;50.274;18.908;2022-09-09T03:38:23;14.60;;;11.50;;
61897;SDS011;47850;50.274;18.908;2022-09-09T03:40:50;17.10;;;11.20;;
61897;SDS011;47850;50.274;18.908;2022-09-09T03:43:24;17.50;;;12.40;;
61897;SDS011;47850;50.274;18.908;2022-09-09T03:45:51;16.60;;;12.00;;
61897;SDS011;47850;50.274;18.908;2022-09-09T03:48:17;18.70;;;12.90;;
61897;SDS011;47850;50.274;18.908;2022-09-09T03:50:51;16.50;;;11.50;;
61897;SDS011;47850;50.274;18.908;2022-09-09T03:53:18;16.00;;;12.30;;
61897;SDS011;47850;50.274;18.908;2022-09-09T03:55:46;13.80;;;10.60;;
61897;SDS011;47850;50.274;18.908;2022-09-09T03:58:21;14.20;;;11.00;;
61897;SDS011;47850;50.274;18.908;2022-09-09T04:01:03;17.00;;;10.90;;
61897;SDS011;47850;50.274;18.908;2022-09-09T04:03:30;16.00;;;11.80;;
61897;SDS011;47850;50.274;18.908;2022-09-09T04:05:58;19.70;;;12.50;;
61897;SDS011;47850;50.274;18.908;2022-09-09T04:08:25;19.90;;;12.10;;
61897;SDS011;47850;50.274;18.908;2022-09-09T04:10:51;22.50;;;13.50;;
61897;SDS011;47850;50.274;18.908;2022-09-09T04:13:18;14.70;;;11.40;;
61897;SDS011;47850;50.274;18.908;2022-09-09T04:15:55;17.70;;;12.50;;
61897;SDS011;47850;50.274;18.908;2022-09-09T04:18:23;18.80;;;12.80;;
61897;SDS011;47850;50.274;18.908;2022-09-09T04:20:52;14.00;;;11.70;;
61897;SDS011;47850;50.274;18.908;2022-09-09T04:23:18;15.80;;;11.20;;
61897;SDS011;47850;50.274;18.908;2022-09-09T04:25:49;15.40;;;11.70;;
61897;SDS011;47850;50.274;18.908;2022-09-09T04:28:18;17.10;;;12.40;;
61897;SDS011;47850;50.274;18.908;2022-09-09T04:30:45;18.00;;;12.10;;
61897;SDS011;47850;50.274;18.908;2022-09-09T04:33:12;14.10;;;11.70;;
61897;SDS011;47850;50.274;18.908;2022-09-09T04:35:39;14.10;;;11.00;;
61897;SDS011;47850;50.274;18.908;2022-09-09T04:40:35;17.90;;;11.90;;
61897;SDS011;47850;50.274;18.908;2022-09-09T04:43:01;18.40;;;10.60;;
61897;SDS011;47850;50.274;18.908;2022-09-09T04:45:31;15.60;;;10.30;;
61897;SDS011;47850;50.274;18.908;2022-09-09T04:47:57;24.70;;;13.40;;
61897;SDS011;47850;50.274;18.908;2022-09-09T04:50:23;14.70;;;10.80;;
61897;SDS011;47850;50.274;18.908;2022-09-09T04:52:50;19.00;;;11.70;;
61897;SDS011;47850;50.274;18.908;2022-09-09T04:55:16;10.10;;;9.00;;
61897;SDS011;47850;50.274;18.908;2022-09-09T04:57:42;15.30;;;11.90;;
61897;SDS011;47850;50.274;18.908;2022-09-09T05:00:08;16.50;;;12.00;;
61897;SDS011;47850;50.274;18.908;2022-09-09T05:02:39;17.40;;;11.00;;
61897;SDS011;47850;50.274;18.908;2022-09-09T05:05:05;13.30;;;10.90;;
61897;SDS011;47850;50.274;18.908;2022-09-09T05:07:32;19.80;;;11.80;;
61897;SDS011;47850;50.274;18.908;2022-09-09T05:09:57;14.00;;;10.90;;
61897;SDS011;47850;50.274;18.908;2022-09-09T05:12:24;13.60;;;10.70;;
61897;SDS011;47850;50.274;18.908;2022-09-09T05:14:51;12.80;;;10.30;;
61897;SDS011;47850;50.274;18.908;2022-09-09T05:17:18;12.70;;;9.50;;
61897;SDS011;47850;50.274;18.908;2022-09-09T05:19:44;11.50;;;8.80;;
61897;SDS011;47850;50.274;18.908;2022-09-09T05:22:10;12.70;;;9.30;;
61897;SDS011;47850;50.274;18.908;2022-09-09T05:24:37;11.90;;;9.80;;
61897;SDS011;47850;50.274;18.908;2022-09-09T05:27:04;14.10;;;9.60;;
61897;SDS011;47850;50.274;18.908;2022-09-09T05:29:31;13.60;;;10.20;;
61897;SDS011;47850;50.274;18.908;2022-09-09T05:32:01;14.70;;;10.30;;
61897;SDS011;47850;50.274;18.908;2022-09-09T05:34:27;13.80;;;9.30;;
61897;SDS011;47850;50.274;18.908;2022-09-09T05:36:53;12.70;;;9.10;;
61897;SDS011;47850;50.274;18.908;2022-09-09T05:39:19;15.20;;;9.40;;
61897;SDS011;47850;50.274;18.908;2022-09-09T05:41:45;13.00;;;10.00;;
61897;SDS011;47850;50.274;18.908;2022-09-09T05:44:11;12.90;;;9.60;;
61897;SDS011;47850;50.274;18.908;2022-09-09T05:46:37;12.30;;;9.60;;
61897;SDS011;47850;50.274;18.908;2022-09-09T05:49:03;13.20;;;10.10;;
61897;SDS011;47850;50.274;18.908;2022-09-09T05:51:31;15.10;;;9.30;;
61897;SDS011;47850;50.274;18.908;2022-09-09T05:53:57;16.40;;;9.00;;
61897;SDS011;47850;50.274;18.908;2022-09-09T05:56:27;13.40;;;10.30;;
61897;SDS011;47850;50.274;18.908;2022-09-09T05:58:54;13.40;;;9.20;;
61897;SDS011;47850;50.274;18.908;2022-09-09T06:01:22;9.90;;;8.50;;
61897;SDS011;47850;50.274;18.908;2022-09-09T06:03:50;16.20;;;10.20;;
61897;SDS011;47850;50.274;18.908;2022-09-09T06:06:18;15.10;;;9.90;;
61897;SDS011;47850;50.274;18.908;2022-09-09T06:08:47;12.30;;;9.80;;
61897;SDS011;47850;50.274;18.908;2022-09-09T06:11:17;10.90;;;9.30;;
61897;SDS011;47850;50.274;18.908;2022-09-09T06:13:47;12.50;;;9.80;;
61897;SDS011;47850;50.274;18.908;2022-09-09T06:16:17;10.80;;;8.20;;
61897;SDS011;47850;50.274;18.908;2022-09-09T06:18:44;14.50;;;9.60;;
61897;SDS011;47850;50.274;18.908;2022-09-09T06:21:20;12.80;;;9.60;;
61897;SDS011;47850;50.274;18.908;2022-09-09T06:23:49;10.80;;;9.00;;
61897;SDS011;47850;50.274;18.908;2022-09-09T06:26:17;12.40;;;9.20;;
61897;SDS011;47850;50.274;18.908;2022-09-09T06:28:46;13.10;;;9.10;;
61897;SDS011;47850;50.274;18.908;2022-09-09T06:31:13;14.60;;;8.90;;
61897;SDS011;47850;50.274;18.908;2022-09-09T06:33:47;14.20;;;9.10;;
61897;SDS011;47850;50.274;18.908;2022-09-09T06:36:19;10.70;;;8.80;;
61897;SDS011;47850;50.274;18.908;2022-09-09T06:38:46;12.40;;;9.20;;
61897;SDS011;47850;50.274;18.908;2022-09-09T06:41:13;13.20;;;9.40;;
61897;SDS011;47850;50.274;18.908;2022-09-09T06:43:41;10.50;;;8.70;;
61897;SDS011;47850;50.274;18.908;2022-09-09T06:46:11;12.60;;;9.60;;
61897;SDS011;47850;50.274;18.908;2022-09-09T06:48:39;12.00;;;8.30;;
61897;SDS011;47850;50.274;18.908;2022-09-09T06:51:10;8.80;;;7.50;;
61897;SDS011;47850;50.274;18.908;2022-09-09T06:53:37;9.40;;;7.50;;
61897;SDS011;47850;50.274;18.908;2022-09-09T06:58:37;8.20;;;6.60;;
61897;SDS011;47850;50.274;18.908;2022-09-09T07:01:10;9.20;;;6.80;;
61897;SDS011;47850;50.274;18.908;2022-09-09T07:03:41;20.30;;;11.20;;
61897;SDS011;47850;50.274;18.908;2022-09-09T07:08:42;6.50;;;5.80;;
61897;SDS011;47850;50.274;18.908;2022-09-09T07:11:09;9.30;;;6.40;;
61897;SDS011;47850;50.274;18.908;2022-09-09T07:13:36;8.10;;;6.10;;
61897;SDS011;47850;50.274;18.908;2022-09-09T07:16:06;8.40;;;4.80;;
61897;SDS011;47850;50.274;18.908;2022-09-09T07:18:34;5.60;;;4.60;;
61897;SDS011;47850;50.274;18.908;2022-09-09T07:21:01;9.40;;;5.00;;
61897;SDS011;47850;50.274;18.908;2022-09-09T07:23:28;7.10;;;5.20;;
61897;SDS011;47850;50.274;18.908;2022-09-09T07:25:56;5.50;;;4.00;;
61897;SDS011;47850;50.274;18.908;2022-09-09T07:28:23;5.30;;;4.10;;
61897;SDS011;47850;50.274;18.908;2022-09-09T07:33:28;3.90;;;2.80;;
61897;SDS011;47850;50.274;18.908;2022-09-09T07:36:06;6.70;;;4.10;;
61897;SDS011;47850;50.274;18.908;2022-09-09T07:38:38;5.30;;;3.50;;
61897;SDS011;47850;50.274;18.908;2022-09-09T07:41:06;9.00;;;4.70;;
61897;SDS011;47850;50.274;18.908;2022-09-09T07:43:37;6.90;;;3.30;;
61897;SDS011;47850;50.274;18.908;2022-09-09T07:46:05;4.50;;;2.90;;
61897;SDS011;47850;50.274;18.908;2022-09-09T07:48:32;6.40;;;2.90;;
61897;SDS011;47850;50.274;18.908;2022-09-09T07:51:08;5.20;;;3.50;;
61897;SDS011;47850;50.274;18.908;2022-09-09T07:53:37;6.10;;;4.10;;
61897;SDS011;47850;50.274;18.908;2022-09-09T07:56:08;5.10;;;3.00;;
61897;SDS011;47850;50.274;18.908;2022-09-09T07:58:36;5.90;;;3.30;;
61897;SDS011;47850;50.274;18.908;2022-09-09T08:01:13;8.00;;;3.10;;
61897;SDS011;47850;50.274;18.908;2022-09-09T08:03:45;4.30;;;2.50;;
61897;SDS011;47850;50.274;18.908;2022-09-09T08:06:12;4.40;;;2.50;;
61897;SDS011;47850;50.274;18.908;2022-09-09T08:08:39;3.90;;;2.70;;
61897;SDS011;47850;50.274;18.908;2022-09-09T08:13:37;4.30;;;2.40;;
61897;SDS011;47850;50.274;18.908;2022-09-09T08:18:35;4.90;;;3.10;;
61897;SDS011;47850;50.274;18.908;2022-09-09T08:24:04;5.50;;;2.90;;
61897;SDS011;47850;50.274;18.908;2022-09-09T08:26:34;5.10;;;2.60;;
61897;SDS011;47850;50.274;18.908;2022-09-09T08:29:03;5.40;;;2.70;;
61897;SDS011;47850;50.274;18.908;2022-09-09T08:31:35;5.70;;;2.40;;
61897;SDS011;47850;50.274;18.908;2022-09-09T08:34:03;6.10;;;2.70;;
61897;SDS011;47850;50.274;18.908;2022-09-09T08:36:31;5.70;;;2.90;;
61897;SDS011;47850;50.274;18.908;2022-09-09T08:38:59;3.70;;;2.30;;
61897;SDS011;47850;50.274;18.908;2022-09-09T08:44:42;3.90;;;2.30;;
61897;SDS011;47850;50.274;18.908;2022-09-09T08:47:24;3.90;;;2.10;;
61897;SDS011;47850;50.274;18.908;2022-09-09T08:53:02;5.00;;;2.10;;
61897;SDS011;47850;50.274;18.908;2022-09-09T08:55:35;5.90;;;2.30;;
61897;SDS011;47850;50.274;18.908;2022-09-09T08:58:06;6.70;;;2.20;;
61897;SDS011;47850;50.274;18.908;2022-09-09T09:01:01;5.10;;;2.40;;
61897;SDS011;47850;50.274;18.908;2022-09-09T09:11:24;3.30;;;2.20;;
61897;SDS011;47850;50.274;18.908;2022-09-09T09:16:32;5.30;;;2.10;;
61897;SDS011;47850;50.274;18.908;2022-09-09T09:19:03;4.60;;;2.00;;
61897;SDS011;47850;50.274;18.908;2022-09-09T09:27:33;4.00;;;1.90;;
61897;SDS011;47850;50.274;18.908;2022-09-09T09:32:44;9.30;;;2.00;;
61897;SDS011;47850;50.274;18.908;2022-09-09T09:35:26;3.30;;;1.90;;
61897;SDS011;47850;50.274;18.908;2022-09-09T09:37:52;4.90;;;2.00;;
61897;SDS011;47850;50.274;18.908;2022-09-09T09:40:20;3.90;;;2.10;;
61897;SDS011;47850;50.274;18.908;2022-09-09T09:42:49;4.50;;;2.00;;
61897;SDS011;47850;50.274;18.908;2022-09-09T09:48:09;4.30;;;1.80;;
61897;SDS011;47850;50.274;18.908;2022-09-09T09:50:46;5.00;;;1.80;;
61897;SDS011;47850;50.274;18.908;2022-09-09T09:53:20;6.60;;;1.80;;
61897;SDS011;47850;50.274;18.908;2022-09-09T09:55:57;3.80;;;1.50;;
61897;SDS011;47850;50.274;18.908;2022-09-09T09:58:27;2.80;;;1.30;;
61897;SDS011;47850;50.274;18.908;2022-09-09T10:00:56;3.40;;;1.00;;
61897;SDS011;47850;50.274;18.908;2022-09-09T10:03:27;2.90;;;1.40;;
61897;SDS011;47850;50.274;18.908;2022-09-09T10:05:54;2.70;;;1.40;;
61897;SDS011;47850;50.274;18.908;2022-09-09T10:08:22;3.30;;;1.50;;
61897;SDS011;47850;50.274;18.908;2022-09-09T10:10:55;7.60;;;2.20;;
61897;SDS011;47850;50.274;18.908;2022-09-09T10:13:47;4.10;;;1.00;;
61897;SDS011;47850;50.274;18.908;2022-09-09T10:16:40;2.00;;;1.30;;
61897;SDS011;47850;50.274;18.908;2022-09-09T10:19:36;5.60;;;1.70;;
61897;SDS011;47850;50.274;18.908;2022-09-09T10:25:01;3.90;;;2.00;;
61897;SDS011;47850;50.274;18.908;2022-09-09T10:36:22;3.80;;;1.50;;
61897;SDS011;47850;50.274;18.908;2022-09-09T10:38:52;3.50;;;1.20;;
61897;SDS011;47850;50.274;18.908;2022-09-09T10:44:21;2.50;;;1.30;;
61897;SDS011;47850;50.274;18.908;2022-09-09T10:54:57;4.00;;;1.60;;
61897;SDS011;47850;50.274;18.908;2022-09-09T10:57:37;3.00;;;1.40;;
61897;SDS011;47850;50.274;18.908;2022-09-09T11:00:16;2.60;;;1.50;;
61897;SDS011;47850;50.274;18.908;2022-09-09T11:02:43;3.10;;;1.00;;
61897;SDS011;47850;50.274;18.908;2022-09-09T11:08:21;2.80;;;1.20;;
61897;SDS011;47850;50.274;18.908;2022-09-09T11:11:05;3.80;;;1.20;;
61897;SDS011;47850;50.274;18.908;2022-09-09T11:14:11;2.10;;;1.40;;
61897;SDS011;47850;50.274;18.908;2022-09-09T11:22:00;7.20;;;1.40;;
61897;SDS011;47850;50.274;18.908;2022-09-09T11:24:37;2.80;;;1.00;;
61897;SDS011;47850;50.274;18.908;2022-09-09T11:30:02;2.30;;;1.00;;
61897;SDS011;47850;50.274;18.908;2022-09-09T11:33:13;3.40;;;1.30;;
61897;SDS011;47850;50.274;18.908;2022-09-09T11:41:12;5.60;;;1.20;;
61897;SDS011;47850;50.274;18.908;2022-09-09T11:46:15;5.10;;;1.20;;
61897;SDS011;47850;50.274;18.908;2022-09-09T11:48:44;25.40;;;1.90;;
61897;SDS011;47850;50.274;18.908;2022-09-09T11:53:49;3.10;;;1.00;;
61897;SDS011;47850;50.274;18.908;2022-09-09T11:56:23;2.10;;;1.20;;
61897;SDS011;47850;50.274;18.908;2022-09-09T11:58:56;2.30;;;1.00;;
61897;SDS011;47850;50.274;18.908;2022-09-09T12:01:48;2.40;;;1.10;;
61897;SDS011;47850;50.274;18.908;2022-09-09T12:06:51;2.70;;;0.80;;
61897;SDS011;47850;50.274;18.908;2022-09-09T12:19:40;3.00;;;0.90;;
61897;SDS011;47850;50.274;18.908;2022-09-09T12:25:20;3.80;;;1.00;;
61897;SDS011;47850;50.274;18.908;2022-09-09T12:28:02;2.30;;;1.00;;
61897;SDS011;47850;50.274;18.908;2022-09-09T12:30:32;3.50;;;1.20;;
61897;SDS011;47850;50.274;18.908;2022-09-09T12:33:13;2.80;;;1.20;;
61897;SDS011;47850;50.274;18.908;2022-09-09T12:35:42;5.80;;;1.00;;
61897;SDS011;47850;50.274;18.908;2022-09-09T12:38:54;2.00;;;1.20;;
61897;SDS011;47850;50.274;18.908;2022-09-09T12:41:02;2.10;;;0.90;;
61897;SDS011;47850;50.274;18.908;2022-09-09T12:43:28;1.70;;;1.10;;
61897;SDS011;47850;50.274;18.908;2022-09-09T12:45:59;2.40;;;1.00;;
61897;SDS011;47850;50.274;18.908;2022-09-09T12:48:33;3.20;;;0.90;;
61897;SDS011;47850;50.274;18.908;2022-09-09T12:51:03;2.40;;;0.90;;
61897;SDS011;47850;50.274;18.908;2022-09-09T12:53:33;2.20;;;0.90;;
61897;SDS011;47850;50.274;18.908;2022-09-09T12:56:03;2.50;;;1.00;;
61897;SDS011;47850;50.274;18.908;2022-09-09T12:58:33;2.50;;;0.90;;
61897;SDS011;47850;50.274;18.908;2022-09-09T13:01:03;1.60;;;0.90;;
61897;SDS011;47850;50.274;18.908;2022-09-09T13:03:31;4.00;;;1.20;;
61897;SDS011;47850;50.274;18.908;2022-09-09T13:05:59;3.20;;;0.90;;
61897;SDS011;47850;50.274;18.908;2022-09-09T13:08:37;1.90;;;1.00;;
61897;SDS011;47850;50.274;18.908;2022-09-09T13:11:06;2.10;;;1.10;;
61897;SDS011;47850;50.274;18.908;2022-09-09T13:13:41;2.60;;;1.30;;
61897;SDS011;47850;50.274;18.908;2022-09-09T13:16:19;5.80;;;1.30;;
61897;SDS011;47850;50.274;18.908;2022-09-09T13:18:52;2.20;;;1.00;;
61897;SDS011;47850;50.274;18.908;2022-09-09T13:21:18;3.10;;;1.10;;
61897;SDS011;47850;50.274;18.908;2022-09-09T13:23:49;3.70;;;0.90;;
61897;SDS011;47850;50.274;18.908;2022-09-09T13:26:21;5.00;;;1.00;;
61897;SDS011;47850;50.274;18.908;2022-09-09T13:28:48;2.70;;;1.00;;
61897;SDS011;47850;50.274;18.908;2022-09-09T13:33:49;3.60;;;1.40;;
61897;SDS011;47850;50.274;18.908;2022-09-09T13:36:15;3.10;;;1.20;;
61897;SDS011;47850;50.274;18.908;2022-09-09T13:41:19;4.00;;;1.10;;
61897;SDS011;47850;50.274;18.908;2022-09-09T13:43:49;2.50;;;1.10;;
61897;SDS011;47850;50.274;18.908;2022-09-09T13:46:35;3.80;;;1.10;;
61897;SDS011;47850;50.274;18.908;2022-09-09T13:54:00;4.50;;;1.10;;
61897;SDS011;47850;50.274;18.908;2022-09-09T13:56:27;2.20;;;1.20;;
61897;SDS011;47850;50.274;18.908;2022-09-09T13:58:53;5.40;;;1.40;;
61897;SDS011;47850;50.274;18.908;2022-09-09T14:01:19;3.00;;;1.20;;
61897;SDS011;47850;50.274;18.908;2022-09-09T14:03:44;3.30;;;1.10;;
61897;SDS011;47850;50.274;18.908;2022-09-09T14:06:12;2.80;;;1.30;;
61897;SDS011;47850;50.274;18.908;2022-09-09T14:08:38;2.10;;;0.90;;
61897;SDS011;47850;50.274;18.908;2022-09-09T14:11:05;9.90;;;1.30;;
61897;SDS011;47850;50.274;18.908;2022-09-09T14:13:36;4.20;;;1.30;;
61897;SDS011;47850;50.274;18.908;2022-09-09T14:16:03;2.60;;;0.90;;
61897;SDS011;47850;50.274;18.908;2022-09-09T14:18:28;5.00;;;1.10;;
61897;SDS011;47850;50.274;18.908;2022-09-09T14:20:54;3.60;;;0.90;;
61897;SDS011;47850;50.274;18.908;2022-09-09T14:23:20;1.80;;;0.80;;
61897;SDS011;47850;50.274;18.908;2022-09-09T14:25:47;3.20;;;0.90;;
61897;SDS011;47850;50.274;18.908;2022-09-09T14:28:14;2.80;;;0.80;;
61897;SDS011;47850;50.274;18.908;2022-09-09T14:30:41;2.90;;;0.70;;
61897;SDS011;47850;50.274;18.908;2022-09-09T14:33:10;5.00;;;0.90;;
61897;SDS011;47850;50.274;18.908;2022-09-09T14:35:38;3.70;;;1.30;;
61897;SDS011;47850;50.274;18.908;2022-09-09T14:38:05;2.40;;;0.80;;
61897;SDS011;47850;50.274;18.908;2022-09-09T14:40:31;1.40;;;0.80;;
61897;SDS011;47850;50.274;18.908;2022-09-09T14:42:59;1.60;;;0.90;;
61897;SDS011;47850;50.274;18.908;2022-09-09T14:45:25;2.80;;;0.80;;
61897;SDS011;47850;50.274;18.908;2022-09-09T14:47:52;1.90;;;0.80;;
61897;SDS011;47850;50.274;18.908;2022-09-09T14:50:19;3.70;;;0.70;;
61897;SDS011;47850;50.274;18.908;2022-09-09T14:52:45;2.30;;;0.90;;
61897;SDS011;47850;50.274;18.908;2022-09-09T14:55:12;1.90;;;0.80;;
61897;SDS011;47850;50.274;18.908;2022-09-09T14:57:38;5.90;;;1.20;;
61897;SDS011;47850;50.274;18.908;2022-09-09T15:00:06;5.10;;;1.00;;
61897;SDS011;47850;50.274;18.908;2022-09-09T15:02:33;4.20;;;0.80;;
61897;SDS011;47850;50.274;18.908;2022-09-09T15:04:59;3.50;;;1.10;;
61897;SDS011;47850;50.274;18.908;2022-09-09T15:07:25;6.20;;;0.90;;
61897;SDS011;47850;50.274;18.908;2022-09-09T15:09:52;4.50;;;1.00;;
61897;SDS011;47850;50.274;18.908;2022-09-09T15:12:18;3.40;;;0.80;;
61897;SDS011;47850;50.274;18.908;2022-09-09T15:14:44;2.30;;;0.80;;
61897;SDS011;47850;50.274;18.908;2022-09-09T15:17:11;3.20;;;1.00;;
61897;SDS011;47850;50.274;18.908;2022-09-09T15:19:37;66.20;;;4.00;;
61897;SDS011;47850;50.274;18.908;2022-09-09T15:22:04;94.90;;;4.80;;
61897;SDS011;47850;50.274;18.908;2022-09-09T15:26:59;6.50;;;1.00;;
61897;SDS011;47850;50.274;18.908;2022-09-09T15:29:27;3.70;;;1.00;;
61897;SDS011;47850;50.274;18.908;2022-09-09T15:31:54;2.50;;;1.10;;
61897;SDS011;47850;50.274;18.908;2022-09-09T15:34:21;3.00;;;1.00;;
61897;SDS011;47850;50.274;18.908;2022-09-09T15:36:47;6.90;;;1.20;;
61897;SDS011;47850;50.274;18.908;2022-09-09T15:39:15;5.60;;;1.70;;
61897;SDS011;47850;50.274;18.908;2022-09-09T15:41:43;41.00;;;2.60;;
61897;SDS011;47850;50.274;18.908;2022-09-09T15:44:10;4.30;;;1.20;;
61897;SDS011;47850;50.274;18.908;2022-09-09T15:46:41;41.60;;;2.50;;
61897;SDS011;47850;50.274;18.908;2022-09-09T15:49:10;6.00;;;1.00;;
61897;SDS011;47850;50.274;18.908;2022-09-09T15:51:42;28.80;;;2.40;;
61897;SDS011;47850;50.274;18.908;2022-09-09T15:54:14;2.90;;;1.20;;
61897;SDS011;47850;50.274;18.908;2022-09-09T15:56:46;6.00;;;1.10;;
61897;SDS011;47850;50.274;18.908;2022-09-09T15:59:15;2.10;;;1.10;;
61897;SDS011;47850;50.274;18.908;2022-09-09T16:01:41;4.40;;;1.20;;
61897;SDS011;47850;50.274;18.908;2022-09-09T16:04:09;9.70;;;1.50;;
61897;SDS011;47850;50.274;18.908;2022-09-09T16:06:35;91.20;;;5.80;;
61897;SDS011;47850;50.274;18.908;2022-09-09T16:09:02;5.70;;;1.30;;
61897;SDS011;47850;50.274;18.908;2022-09-09T16:11:31;10.00;;;1.90;;
61897;SDS011;47850;50.274;18.908;2022-09-09T16:14:00;10.10;;;1.60;;
61897;SDS011;47850;50.274;18.908;2022-09-09T16:16:28;5.90;;;1.30;;
61897;SDS011;47850;50.274;18.908;2022-09-09T16:19:06;39.90;;;2.70;;
61897;SDS011;47850;50.274;18.908;2022-09-09T16:21:36;26.50;;;2.60;;
61897;SDS011;47850;50.274;18.908;2022-09-09T16:24:03;479.30;;;22.40;;
61897;SDS011;47850;50.274;18.908;2022-09-09T16:26:31;764.10;;;39.40;;
61897;SDS011;47850;50.274;18.908;2022-09-09T16:29:00;10.40;;;2.00;;
61897;SDS011;47850;50.274;18.908;2022-09-09T16:31:27;14.40;;;2.00;;
61897;SDS011;47850;50.274;18.908;2022-09-09T16:33:55;8.00;;;2.00;;
61897;SDS011;47850;50.274;18.908;2022-09-09T16:36:22;3.30;;;1.60;;
61897;SDS011;47850;50.274;18.908;2022-09-09T16:39:09;13.20;;;1.90;;
61897;SDS011;47850;50.274;18.908;2022-09-09T16:41:37;3.90;;;1.50;;
61897;SDS011;47850;50.274;18.908;2022-09-09T16:44:08;3.30;;;1.70;;
61897;SDS011;47850;50.274;18.908;2022-09-09T16:46:36;42.50;;;2.80;;
61897;SDS011;47850;50.274;18.908;2022-09-09T16:49:04;7.80;;;1.90;;
61897;SDS011;47850;50.274;18.908;2022-09-09T16:51:40;7.70;;;2.30;;
61897;SDS011;47850;50.274;18.908;2022-09-09T16:54:08;5.00;;;2.70;;
61897;SDS011;47850;50.274;18.908;2022-09-09T16:56:39;5.50;;;1.80;;
61897;SDS011;47850;50.274;18.908;2022-09-09T16:59:10;6.20;;;1.90;;
61897;SDS011;47850;50.274;18.908;2022-09-09T17:01:38;7.80;;;2.00;;
61897;SDS011;47850;50.274;18.908;2022-09-09T17:04:09;4.20;;;1.80;;
61897;SDS011;47850;50.274;18.908;2022-09-09T17:06:41;7.10;;;1.90;;
61897;SDS011;47850;50.274;18.908;2022-09-09T17:09:10;5.10;;;2.00;;
61897;SDS011;47850;50.274;18.908;2022-09-09T17:11:38;5.10;;;2.20;;
61897;SDS011;47850;50.274;18.908;2022-09-09T17:14:05;9.30;;;2.70;;
61897;SDS011;47850;50.274;18.908;2022-09-09T17:16:33;19.40;;;2.90;;
61897;SDS011;47850;50.274;18.908;2022-09-09T17:18:59;14.60;;;3.20;;
61897;SDS011;47850;50.274;18.908;2022-09-09T17:21:29;9.40;;;2.70;;